< < Back
Terminal Aerodrome Forecast


Current Version              Previous Versions:   1  2  3  4  5  6  7  8  9  

Terminal Aerodrome Forecast

021
FTUS42 KFFC 070527
TAFATL
TAF
KATL 070527Z 0706/0812 33006KT P6SM FEW250
     FM071500 32011G18KT P6SM FEW250
     FM080000 29006KT P6SM SCT250
     FM080800 25007KT P6SM SCT030 BKN200=

Latest METAR

970
SAUS70 KWBC 071500 RRD
MTRATL
METAR KATL 071452Z 32008KT 10SM CLR 05/M05 A3017 RMK AO2 SLP222
T00501050 53011


USA.gov is the U.S. government's official web portal to all federal, state and local government web resources and services.